sensor_id;sensor_type;location;lat;lon;timestamp;temperature;humidity
38854;DHT22;24606;51.992;4.198;2023-05-27T00:03:03;25.20;52.30
38854;DHT22;24606;51.992;4.198;2023-05-27T00:08:05;25.10;52.40
38854;DHT22;24606;51.992;4.198;2023-05-27T00:13:08;25.00;52.30
38854;DHT22;24606;51.992;4.198;2023-05-27T00:18:10;25.00;52.30
38854;DHT22;24606;51.992;4.198;2023-05-27T00:23:12;24.90;52.10
38854;DHT22;24606;51.992;4.198;2023-05-27T00:28:15;24.90;52.40
38854;DHT22;24606;51.992;4.198;2023-05-27T00:33:17;24.70;52.50
38854;DHT22;24606;51.992;4.198;2023-05-27T00:38:19;24.70;52.10
38854;DHT22;24606;51.992;4.198;2023-05-27T00:43:22;24.60;52.40
38854;DHT22;24606;51.992;4.198;2023-05-27T00:48:24;24.60;52.40
38854;DHT22;24606;51.992;4.198;2023-05-27T00:53:27;24.50;52.70
38854;DHT22;24606;51.992;4.198;2023-05-27T00:58:30;24.40;52.60
38854;DHT22;24606;51.992;4.198;2023-05-27T01:03:32;24.40;52.70
38854;DHT22;24606;51.992;4.198;2023-05-27T01:08:42;24.30;52.80
38854;DHT22;24606;51.992;4.198;2023-05-27T01:13:50;24.30;53.00
38854;DHT22;24606;51.992;4.198;2023-05-27T01:18:54;24.10;52.70
38854;DHT22;24606;51.992;4.198;2023-05-27T01:24:04;24.10;52.70
38854;DHT22;24606;51.992;4.198;2023-05-27T01:29:06;24.00;52.70
38854;DHT22;24606;51.992;4.198;2023-05-27T01:34:09;23.90;52.90
38854;DHT22;24606;51.992;4.198;2023-05-27T01:39:13;23.90;52.70
38854;DHT22;24606;51.992;4.198;2023-05-27T01:44:16;23.80;52.70
38854;DHT22;24606;51.992;4.198;2023-05-27T01:49:19;23.80;52.80
38854;DHT22;24606;51.992;4.198;2023-05-27T01:54:22;23.70;52.30
38854;DHT22;24606;51.992;4.198;2023-05-27T01:59:23;23.60;52.50
38854;DHT22;24606;51.992;4.198;2023-05-27T02:04:25;23.60;52.30
38854;DHT22;24606;51.992;4.198;2023-05-27T02:09:28;23.60;53.10
38854;DHT22;24606;51.992;4.198;2023-05-27T02:14:30;23.50;52.60
38854;DHT22;24606;51.992;4.198;2023-05-27T02:19:33;23.40;52.60
38854;DHT22;24606;51.992;4.198;2023-05-27T02:24:36;23.30;52.20
38854;DHT22;24606;51.992;4.198;2023-05-27T02:29:38;23.30;52.50
38854;DHT22;24606;51.992;4.198;2023-05-27T02:34:40;23.30;52.60
38854;DHT22;24606;51.992;4.198;2023-05-27T02:39:43;23.10;52.20
38854;DHT22;24606;51.992;4.198;2023-05-27T02:44:45;23.20;52.80
38854;DHT22;24606;51.992;4.198;2023-05-27T02:49:46;23.10;52.50
38854;DHT22;24606;51.992;4.198;2023-05-27T02:54:50;22.90;52.60
38854;DHT22;24606;51.992;4.198;2023-05-27T03:15:40;22.80;51.40
38854;DHT22;24606;51.992;4.198;2023-05-27T03:20:42;22.70;52.30
38854;DHT22;24606;51.992;4.198;2023-05-27T03:25:44;22.60;52.50
38854;DHT22;24606;51.992;4.198;2023-05-27T03:30:47;22.60;52.80
38854;DHT22;24606;51.992;4.198;2023-05-27T03:35:49;22.50;52.80
38854;DHT22;24606;51.992;4.198;2023-05-27T03:40:51;22.50;52.50
38854;DHT22;24606;51.992;4.198;2023-05-27T03:45:54;22.50;52.70
38854;DHT22;24606;51.992;4.198;2023-05-27T03:50:56;22.40;53.00
38854;DHT22;24606;51.992;4.198;2023-05-27T03:55:58;22.40;52.40
38854;DHT22;24606;51.992;4.198;2023-05-27T04:01:01;22.30;52.90
38854;DHT22;24606;51.992;4.198;2023-05-27T04:06:03;22.30;52.60
38854;DHT22;24606;51.992;4.198;2023-05-27T04:11:09;22.20;52.50
38854;DHT22;24606;51.992;4.198;2023-05-27T04:16:12;22.20;52.80
38854;DHT22;24606;51.992;4.198;2023-05-27T04:21:15;22.20;53.00
38854;DHT22;24606;51.992;4.198;2023-05-27T04:26:17;22.10;52.80
38854;DHT22;24606;51.992;4.198;2023-05-27T04:31:21;22.00;52.50
38854;DHT22;24606;51.992;4.198;2023-05-27T04:36:23;22.10;52.80
38854;DHT22;24606;51.992;4.198;2023-05-27T04:41:27;22.00;52.60
38854;DHT22;24606;51.992;4.198;2023-05-27T04:46:30;22.10;52.70
38854;DHT22;24606;51.992;4.198;2023-05-27T04:51:32;22.20;52.60
38854;DHT22;24606;51.992;4.198;2023-05-27T04:56:36;22.20;52.40
38854;DHT22;24606;51.992;4.198;2023-05-27T05:01:39;22.20;52.60
38854;DHT22;24606;51.992;4.198;2023-05-27T05:06:59;22.20;52.30
38854;DHT22;24606;51.992;4.198;2023-05-27T05:12:01;22.10;52.90
38854;DHT22;24606;51.992;4.198;2023-05-27T05:17:06;22.10;52.70
38854;DHT22;24606;51.992;4.198;2023-05-27T05:22:08;21.90;53.10
38854;DHT22;24606;51.992;4.198;2023-05-27T05:27:11;21.90;52.60
38854;DHT22;24606;51.992;4.198;2023-05-27T05:32:14;22.00;52.40
38854;DHT22;24606;51.992;4.198;2023-05-27T05:37:16;21.90;52.80
38854;DHT22;24606;51.992;4.198;2023-05-27T05:42:18;22.00;52.60
38854;DHT22;24606;51.992;4.198;2023-05-27T05:47:21;22.10;52.90
38854;DHT22;24606;51.992;4.198;2023-05-27T05:52:23;22.10;52.50
38854;DHT22;24606;51.992;4.198;2023-05-27T05:57:25;22.00;52.80
38854;DHT22;24606;51.992;4.198;2023-05-27T06:02:28;22.10;52.60
38854;DHT22;24606;51.992;4.198;2023-05-27T06:07:30;22.10;52.60
38854;DHT22;24606;51.992;4.198;2023-05-27T06:12:32;22.00;52.40
38854;DHT22;24606;51.992;4.198;2023-05-27T06:17:35;22.20;52.80
38854;DHT22;24606;51.992;4.198;2023-05-27T06:22:37;22.20;52.30
38854;DHT22;24606;51.992;4.198;2023-05-27T06:27:39;22.20;52.10
38854;DHT22;24606;51.992;4.198;2023-05-27T06:32:42;22.20;52.20
38854;DHT22;24606;51.992;4.198;2023-05-27T06:37:44;22.20;52.30
38854;DHT22;24606;51.992;4.198;2023-05-27T06:42:46;22.20;52.30
38854;DHT22;24606;51.992;4.198;2023-05-27T06:47:49;22.20;52.50
38854;DHT22;24606;51.992;4.198;2023-05-27T06:52:51;22.20;52.40
38854;DHT22;24606;51.992;4.198;2023-05-27T06:57:53;22.30;52.30
38854;DHT22;24606;51.992;4.198;2023-05-27T07:02:56;22.50;51.50
38854;DHT22;24606;51.992;4.198;2023-05-27T07:07:58;22.60;51.70
38854;DHT22;24606;51.992;4.198;2023-05-27T07:13:00;22.70;52.00
38854;DHT22;24606;51.992;4.198;2023-05-27T07:18:03;22.80;51.20
38854;DHT22;24606;51.992;4.198;2023-05-27T07:23:06;23.00;51.70
38854;DHT22;24606;51.992;4.198;2023-05-27T07:28:07;23.00;51.50
38854;DHT22;24606;51.992;4.198;2023-05-27T07:33:11;22.90;51.30
38854;DHT22;24606;51.992;4.198;2023-05-27T07:38:13;22.90;51.90
38854;DHT22;24606;51.992;4.198;2023-05-27T07:43:14;22.90;51.60
38854;DHT22;24606;51.992;4.198;2023-05-27T07:48:18;23.00;51.60
38854;DHT22;24606;51.992;4.198;2023-05-27T07:53:20;22.90;51.80
38854;DHT22;24606;51.992;4.198;2023-05-27T07:58:21;23.20;51.30
38854;DHT22;24606;51.992;4.198;2023-05-27T08:03:25;23.20;51.10
38854;DHT22;24606;51.992;4.198;2023-05-27T08:08:27;23.20;51.10
38854;DHT22;24606;51.992;4.198;2023-05-27T08:13:28;23.10;51.20
38854;DHT22;24606;51.992;4.198;2023-05-27T08:18:32;23.10;52.10
38854;DHT22;24606;51.992;4.198;2023-05-27T08:23:34;23.10;51.60
38854;DHT22;24606;51.992;4.198;2023-05-27T08:28:35;23.20;51.40
38854;DHT22;24606;51.992;4.198;2023-05-27T08:33:38;23.10;51.80
38854;DHT22;24606;51.992;4.198;2023-05-27T08:38:41;23.30;51.40
38854;DHT22;24606;51.992;4.198;2023-05-27T08:43:43;23.10;52.20
38854;DHT22;24606;51.992;4.198;2023-05-27T08:48:47;23.00;52.00
38854;DHT22;24606;51.992;4.198;2023-05-27T08:53:49;23.00;52.70
38854;DHT22;24606;51.992;4.198;2023-05-27T08:58:51;23.20;52.30
38854;DHT22;24606;51.992;4.198;2023-05-27T09:03:55;23.40;52.00
38854;DHT22;24606;51.992;4.198;2023-05-27T09:08:57;23.70;51.30
38854;DHT22;24606;51.992;4.198;2023-05-27T09:13:59;23.50;52.00
38854;DHT22;24606;51.992;4.198;2023-05-27T09:19:02;23.70;51.60
38854;DHT22;24606;51.992;4.198;2023-05-27T09:24:04;23.80;51.40
38854;DHT22;24606;51.992;4.198;2023-05-27T09:29:06;23.70;51.30
38854;DHT22;24606;51.992;4.198;2023-05-27T09:34:13;23.90;51.10
38854;DHT22;24606;51.992;4.198;2023-05-27T09:39:18;23.70;51.30
38854;DHT22;24606;51.992;4.198;2023-05-27T09:44:21;23.90;51.00
38854;DHT22;24606;51.992;4.198;2023-05-27T09:49:25;23.90;51.20
38854;DHT22;24606;51.992;4.198;2023-05-27T09:54:28;23.90;50.90
38854;DHT22;24606;51.992;4.198;2023-05-27T09:59:32;23.90;50.50
38854;DHT22;24606;51.992;4.198;2023-05-27T10:04:35;24.10;50.70
38854;DHT22;24606;51.992;4.198;2023-05-27T10:09:37;24.20;50.50
38854;DHT22;24606;51.992;4.198;2023-05-27T10:14:39;24.20;50.60
38854;DHT22;24606;51.992;4.198;2023-05-27T10:19:56;23.90;49.40
38854;DHT22;24606;51.992;4.198;2023-05-27T10:25:10;24.30;50.30
38854;DHT22;24606;51.992;4.198;2023-05-27T10:30:13;24.30;50.40
38854;DHT22;24606;51.992;4.198;2023-05-27T10:35:16;24.00;51.00
38854;DHT22;24606;51.992;4.198;2023-05-27T10:40:24;24.50;50.40
38854;DHT22;24606;51.992;4.198;2023-05-27T10:45:31;24.50;50.60
38854;DHT22;24606;51.992;4.198;2023-05-27T10:50:35;24.70;50.40
38854;DHT22;24606;51.992;4.198;2023-05-27T10:55:37;24.70;50.40
38854;DHT22;24606;51.992;4.198;2023-05-27T11:00:40;24.80;50.50
38854;DHT22;24606;51.992;4.198;2023-05-27T11:05:44;24.90;50.30
38854;DHT22;24606;51.992;4.198;2023-05-27T11:10:46;24.90;50.80
38854;DHT22;24606;51.992;4.198;2023-05-27T11:15:48;25.00;49.90
38854;DHT22;24606;51.992;4.198;2023-05-27T11:20:51;24.70;50.70
38854;DHT22;24606;51.992;4.198;2023-05-27T11:25:53;24.80;50.20
38854;DHT22;24606;51.992;4.198;2023-05-27T11:30:58;25.00;49.70
38854;DHT22;24606;51.992;4.198;2023-05-27T11:36:05;25.00;49.60
38854;DHT22;24606;51.992;4.198;2023-05-27T11:41:07;25.20;49.70
38854;DHT22;24606;51.992;4.198;2023-05-27T11:46:09;25.10;49.70
38854;DHT22;24606;51.992;4.198;2023-05-27T11:51:13;25.40;48.30
38854;DHT22;24606;51.992;4.198;2023-05-27T11:56:15;24.90;49.10
38854;DHT22;24606;51.992;4.198;2023-05-27T12:01:16;25.10;48.60
38854;DHT22;24606;51.992;4.198;2023-05-27T12:06:20;25.50;49.70
38854;DHT22;24606;51.992;4.198;2023-05-27T12:11:21;24.90;48.60
38854;DHT22;24606;51.992;4.198;2023-05-27T12:16:23;25.40;50.00
38854;DHT22;24606;51.992;4.198;2023-05-27T12:21:27;25.00;50.90
38854;DHT22;24606;51.992;4.198;2023-05-27T12:26:29;25.30;50.60
38854;DHT22;24606;51.992;4.198;2023-05-27T12:31:31;25.90;49.70
38854;DHT22;24606;51.992;4.198;2023-05-27T12:36:34;25.80;50.00
38854;DHT22;24606;51.992;4.198;2023-05-27T12:41:37;26.20;49.30
38854;DHT22;24606;51.992;4.198;2023-05-27T12:46:39;25.30;50.10
38854;DHT22;24606;51.992;4.198;2023-05-27T12:51:43;26.20;48.80
38854;DHT22;24606;51.992;4.198;2023-05-27T12:56:45;26.90;48.90
38854;DHT22;24606;51.992;4.198;2023-05-27T13:01:47;26.90;48.50
38854;DHT22;24606;51.992;4.198;2023-05-27T13:06:50;26.50;49.20
38854;DHT22;24606;51.992;4.198;2023-05-27T13:11:52;25.90;49.40
38854;DHT22;24606;51.992;4.198;2023-05-27T13:16:54;26.20;50.20
38854;DHT22;24606;51.992;4.198;2023-05-27T13:21:57;26.20;51.00
38854;DHT22;24606;51.992;4.198;2023-05-27T13:26:59;26.30;51.50
38854;DHT22;24606;51.992;4.198;2023-05-27T13:32:01;26.00;51.00
38854;DHT22;24606;51.992;4.198;2023-05-27T13:37:06;26.50;50.60
38854;DHT22;24606;51.992;4.198;2023-05-27T13:42:08;26.70;49.60
38854;DHT22;24606;51.992;4.198;2023-05-27T13:47:09;26.70;49.30
38854;DHT22;24606;51.992;4.198;2023-05-27T13:52:13;26.80;49.60
38854;DHT22;24606;51.992;4.198;2023-05-27T13:57:14;26.70;49.70
38854;DHT22;24606;51.992;4.198;2023-05-27T14:02:16;26.90;50.40
38854;DHT22;24606;51.992;4.198;2023-05-27T14:07:20;26.90;50.10
38854;DHT22;24606;51.992;4.198;2023-05-27T14:12:23;26.80;50.00
38854;DHT22;24606;51.992;4.198;2023-05-27T14:17:26;27.00;50.10
38854;DHT22;24606;51.992;4.198;2023-05-27T14:22:29;27.10;49.80
38854;DHT22;24606;51.992;4.198;2023-05-27T14:27:31;27.20;49.60
38854;DHT22;24606;51.992;4.198;2023-05-27T14:32:33;27.40;49.20
38854;DHT22;24606;51.992;4.198;2023-05-27T14:37:36;27.50;49.50
38854;DHT22;24606;51.992;4.198;2023-05-27T14:42:38;27.60;49.40
38854;DHT22;24606;51.992;4.198;2023-05-27T14:47:40;27.70;49.30
38854;DHT22;24606;51.992;4.198;2023-05-27T14:52:43;27.70;49.00
38854;DHT22;24606;51.992;4.198;2023-05-27T14:57:46;27.90;49.70
38854;DHT22;24606;51.992;4.198;2023-05-27T15:02:47;28.00;49.00
38854;DHT22;24606;51.992;4.198;2023-05-27T15:07:51;28.10;49.40
38854;DHT22;24606;51.992;4.198;2023-05-27T15:12:52;28.00;49.00
38854;DHT22;24606;51.992;4.198;2023-05-27T15:17:54;28.20;49.70
38854;DHT22;24606;51.992;4.198;2023-05-27T15:22:57;28.20;49.80
38854;DHT22;24606;51.992;4.198;2023-05-27T15:27:59;28.30;49.30
38854;DHT22;24606;51.992;4.198;2023-05-27T15:33:01;28.40;49.80
38854;DHT22;24606;51.992;4.198;2023-05-27T15:38:04;28.30;49.70
38854;DHT22;24606;51.992;4.198;2023-05-27T15:43:06;28.60;49.00
38854;DHT22;24606;51.992;4.198;2023-05-27T15:48:09;28.90;49.40
38854;DHT22;24606;51.992;4.198;2023-05-27T15:53:12;28.90;49.80
38854;DHT22;24606;51.992;4.198;2023-05-27T15:58:14;29.10;48.90
38854;DHT22;24606;51.992;4.198;2023-05-27T16:03:16;29.10;49.20
38854;DHT22;24606;51.992;4.198;2023-05-27T16:08:20;29.10;49.10
38854;DHT22;24606;51.992;4.198;2023-05-27T16:13:23;29.10;48.50
38854;DHT22;24606;51.992;4.198;2023-05-27T16:18:25;29.00;49.30
38854;DHT22;24606;51.992;4.198;2023-05-27T16:23:28;29.10;49.20
38854;DHT22;24606;51.992;4.198;2023-05-27T16:28:30;29.20;48.80
38854;DHT22;24606;51.992;4.198;2023-05-27T16:33:32;29.20;48.40
38854;DHT22;24606;51.992;4.198;2023-05-27T16:38:35;29.20;48.60
38854;DHT22;24606;51.992;4.198;2023-05-27T16:43:37;29.40;48.50
38854;DHT22;24606;51.992;4.198;2023-05-27T16:48:39;29.30;48.50
38854;DHT22;24606;51.992;4.198;2023-05-27T16:53:42;29.30;48.50
38854;DHT22;24606;51.992;4.198;2023-05-27T16:58:44;29.30;48.30
38854;DHT22;24606;51.992;4.198;2023-05-27T17:03:45;29.40;49.30
38854;DHT22;24606;51.992;4.198;2023-05-27T17:08:49;29.30;48.90
38854;DHT22;24606;51.992;4.198;2023-05-27T17:13:51;29.40;49.30
38854;DHT22;24606;51.992;4.198;2023-05-27T17:18:53;29.30;50.00
38854;DHT22;24606;51.992;4.198;2023-05-27T17:23:56;29.30;48.80
38854;DHT22;24606;51.992;4.198;2023-05-27T17:28:59;29.40;49.40
38854;DHT22;24606;51.992;4.198;2023-05-27T17:34:01;29.40;48.80
38854;DHT22;24606;51.992;4.198;2023-05-27T17:39:04;29.40;49.20
38854;DHT22;24606;51.992;4.198;2023-05-27T17:44:06;29.40;49.70
38854;DHT22;24606;51.992;4.198;2023-05-27T17:49:08;29.40;48.60
38854;DHT22;24606;51.992;4.198;2023-05-27T17:54:11;29.80;50.80
38854;DHT22;24606;51.992;4.198;2023-05-27T17:59:13;29.90;51.30
38854;DHT22;24606;51.992;4.198;2023-05-27T18:04:15;30.30;52.20
38854;DHT22;24606;51.992;4.198;2023-05-27T18:09:18;30.20;50.40
38854;DHT22;24606;51.992;4.198;2023-05-27T18:14:20;30.20;49.90
38854;DHT22;24606;51.992;4.198;2023-05-27T18:19:22;30.30;51.40
38854;DHT22;24606;51.992;4.198;2023-05-27T18:24:25;30.40;49.90
38854;DHT22;24606;51.992;4.198;2023-05-27T18:29:27;30.30;50.80
38854;DHT22;24606;51.992;4.198;2023-05-27T18:34:29;30.30;50.20
38854;DHT22;24606;51.992;4.198;2023-05-27T18:39:32;30.20;50.90
38854;DHT22;24606;51.992;4.198;2023-05-27T18:44:34;30.20;50.40
38854;DHT22;24606;51.992;4.198;2023-05-27T18:49:36;30.30;50.60
38854;DHT22;24606;51.992;4.198;2023-05-27T18:54:39;30.10;50.60
38854;DHT22;24606;51.992;4.198;2023-05-27T18:59:41;30.20;50.50
38854;DHT22;24606;51.992;4.198;2023-05-27T19:04:43;30.20;50.70
38854;DHT22;24606;51.992;4.198;2023-05-27T19:09:46;29.90;51.20
38854;DHT22;24606;51.992;4.198;2023-05-27T19:14:50;30.00;51.20
38854;DHT22;24606;51.992;4.198;2023-05-27T19:19:53;30.00;51.20
38854;DHT22;24606;51.992;4.198;2023-05-27T19:24:56;29.90;51.50
38854;DHT22;24606;51.992;4.198;2023-05-27T19:29:59;29.80;51.20
38854;DHT22;24606;51.992;4.198;2023-05-27T19:35:01;29.70;51.20
38854;DHT22;24606;51.992;4.198;2023-05-27T19:40:06;29.70;51.20
38854;DHT22;24606;51.992;4.198;2023-05-27T19:45:08;29.50;51.30
38854;DHT22;24606;51.992;4.198;2023-05-27T19:50:10;29.30;51.40
38854;DHT22;24606;51.992;4.198;2023-05-27T19:55:14;29.30;51.50
38854;DHT22;24606;51.992;4.198;2023-05-27T20:00:16;29.30;51.60
38854;DHT22;24606;51.992;4.198;2023-05-27T20:05:19;29.20;51.60
38854;DHT22;24606;51.992;4.198;2023-05-27T20:10:22;29.20;51.70
38854;DHT22;24606;51.992;4.198;2023-05-27T20:15:25;29.00;51.70
38854;DHT22;24606;51.992;4.198;2023-05-27T20:20:26;29.00;51.90
38854;DHT22;24606;51.992;4.198;2023-05-27T20:25:33;28.90;51.90
38854;DHT22;24606;51.992;4.198;2023-05-27T20:30:36;28.80;52.60
38854;DHT22;24606;51.992;4.198;2023-05-27T20:35:38;28.70;52.10
38854;DHT22;24606;51.992;4.198;2023-05-27T20:40:41;28.70;52.10
38854;DHT22;24606;51.992;4.198;2023-05-27T20:45:43;28.60;52.20
38854;DHT22;24606;51.992;4.198;2023-05-27T20:50:45;28.50;52.20
38854;DHT22;24606;51.992;4.198;2023-05-27T20:55:48;28.40;52.20
38854;DHT22;24606;51.992;4.198;2023-05-27T21:00:50;28.30;52.20
38854;DHT22;24606;51.992;4.198;2023-05-27T21:05:52;28.30;52.30
38854;DHT22;24606;51.992;4.198;2023-05-27T21:10:55;28.20;52.30
38854;DHT22;24606;51.992;4.198;2023-05-27T21:15:57;28.10;52.40
38854;DHT22;24606;51.992;4.198;2023-05-27T21:20:59;28.00;52.40
38854;DHT22;24606;51.992;4.198;2023-05-27T21:26:02;28.00;52.50
38854;DHT22;24606;51.992;4.198;2023-05-27T21:31:04;27.90;52.50
38854;DHT22;24606;51.992;4.198;2023-05-27T21:36:06;27.80;52.50
38854;DHT22;24606;51.992;4.198;2023-05-27T21:41:10;27.80;52.60
38854;DHT22;24606;51.992;4.198;2023-05-27T21:46:11;27.70;52.60
38854;DHT22;24606;51.992;4.198;2023-05-27T21:51:13;27.70;52.70
38854;DHT22;24606;51.992;4.198;2023-05-27T21:56:17;27.60;52.80
38854;DHT22;24606;51.992;4.198;2023-05-27T22:01:19;27.50;52.70
38854;DHT22;24606;51.992;4.198;2023-05-27T22:06:21;27.40;52.80
38854;DHT22;24606;51.992;4.198;2023-05-27T22:11:24;27.40;52.80
38854;DHT22;24606;51.992;4.198;2023-05-27T22:16:27;27.30;52.90
38854;DHT22;24606;51.992;4.198;2023-05-27T22:21:29;27.30;52.90
38854;DHT22;24606;51.992;4.198;2023-05-27T22:26:33;27.20;53.00
38854;DHT22;24606;51.992;4.198;2023-05-27T22:31:35;27.10;53.00
38854;DHT22;24606;51.992;4.198;2023-05-27T22:36:37;27.10;53.00
38854;DHT22;24606;51.992;4.198;2023-05-27T22:41:40;27.10;53.10
38854;DHT22;24606;51.992;4.198;2023-05-27T22:46:42;27.00;53.10
38854;DHT22;24606;51.992;4.198;2023-05-27T22:51:44;26.90;53.20
38854;DHT22;24606;51.992;4.198;2023-05-27T22:56:47;26.90;53.20
38854;DHT22;24606;51.992;4.198;2023-05-27T23:01:49;26.80;53.20
38854;DHT22;24606;51.992;4.198;2023-05-27T23:06:51;26.80;53.30
38854;DHT22;24606;51.992;4.198;2023-05-27T23:11:54;26.60;53.30
38854;DHT22;24606;51.992;4.198;2023-05-27T23:16:56;26.70;53.40
38854;DHT22;24606;51.992;4.198;2023-05-27T23:21:59;26.60;53.40
38854;DHT22;24606;51.992;4.198;2023-05-27T23:27:02;26.40;53.30
38854;DHT22;24606;51.992;4.198;2023-05-27T23:32:04;26.50;53.40
38854;DHT22;24606;51.992;4.198;2023-05-27T23:37:06;26.40;53.50
38854;DHT22;24606;51.992;4.198;2023-05-27T23:42:09;26.30;54.00
38854;DHT22;24606;51.992;4.198;2023-05-27T23:47:11;26.30;53.50
38854;DHT22;24606;51.992;4.198;2023-05-27T23:52:13;26.20;53.40
38854;DHT22;24606;51.992;4.198;2023-05-27T23:57:16;26.20;53.60
